Time;durP1;ratioP1;P1;durP2;ratioP2;P2;SDS_P1;SDS_P2;PMS_P1;PMS_P2;Temp;Humidity;BMP_temperature;BMP_pressure;BME280_temperature;BME280_humidity;BME280_pressure;Samples;Min_cycle;Max_cycle;Signal;HPM_P1;HPM_P2
2023/05/02 00:00:24;;;;;;;;;;;13.20;99.90;;;;;;5025655;28;19925;-85
2023/05/02 00:02:51;;;;;;;;;;;13.10;99.90;;;;;;5013892;28;19932;-86
2023/05/02 00:05:18;;;;;;;;;;;13.10;99.90;;;;;;5026986;28;19924;-86
2023/05/02 00:07:45;;;;;;;;;;;13.00;99.90;;;;;;5026542;28;20052;-85
2023/05/02 00:10:12;;;;;;;;;;;13.00;99.90;;;;;;5024453;28;20392;-85
2023/05/02 00:12:39;;;;;;;;;;;13.00;99.90;;;;;;5023100;28;19925;-86
2023/05/02 00:15:06;;;;;;;;;;;12.80;99.90;;;;;;5025940;28;19935;-86
2023/05/02 00:17:32;;;;;;;;;;;12.80;99.90;;;;;;5026878;28;19953;-86
2023/05/02 00:19:59;;;;;;;;;;;12.90;99.90;;;;;;5027552;28;19950;-85
2023/05/02 00:22:27;;;;;;;;;;;12.90;99.90;;;;;;5021498;28;19932;-85
2023/05/02 00:24:57;;;;;;;;;;;13.00;99.90;;;;;;5011753;28;19925;-86
2023/05/02 00:27:24;;;;;;;;;;;13.00;99.90;;;;;;5002540;28;20197;-86
2023/05/02 00:29:51;;;;;;;;;;;13.10;99.90;;;;;;5005757;28;19931;-85
2023/05/02 00:32:18;;;;;;;;;;;13.10;99.90;;;;;;5018176;28;20005;-86
2023/05/02 00:34:44;;;;;;;;;;;13.10;99.90;;;;;;5024319;28;20127;-86
2023/05/02 00:37:12;;;;;;;;;;;13.10;99.90;;;;;;5023876;28;19968;-86
2023/05/02 00:39:39;;;;;;;;;;;13.00;99.90;;;;;;5024222;28;19960;-87
2023/05/02 00:42:06;;;;;;;;;;;12.90;99.90;;;;;;5021136;28;19921;-86
2023/05/02 00:44:33;;;;;;;;;;;12.80;99.90;;;;;;5020378;28;20011;-85
2023/05/02 00:46:59;;;;;;;;;;;12.80;99.90;;;;;;5019972;28;20204;-86
2023/05/02 00:49:27;;;;;;;;;;;12.70;99.90;;;;;;5021053;28;20056;-86
2023/05/02 00:51:54;;;;;;;;;;;12.70;99.90;;;;;;5020222;28;20024;-86
2023/05/02 00:54:21;;;;;;;;;;;12.70;99.90;;;;;;5019036;28;19979;-86
2023/05/02 00:56:47;;;;;;;;;;;12.60;99.90;;;;;;5024499;28;19921;-86
2023/05/02 00:59:14;;;;;;;;;;;12.50;99.90;;;;;;5025630;28;19925;-86
2023/05/02 01:02:04;;;;;;;;;;;12.40;99.90;;;;;;5021244;28;20048;-85
2023/05/02 01:04:55;;;;;;;;;;;12.40;99.90;;;;;;5020488;28;19925;-86
2023/05/02 01:07:29;;;;;;;;;;;12.40;99.90;;;;;;5022379;28;20004;-86
2023/05/02 01:09:59;;;;;;;;;;;12.30;99.90;;;;;;5022675;28;19921;-86
2023/05/02 01:12:27;;;;;;;;;;;12.30;99.90;;;;;;5035522;28;19925;-86
2023/05/02 01:14:54;;;;;;;;;;;12.30;99.90;;;;;;5025172;28;19925;-86
2023/05/02 01:17:31;;;;;;;;;;;12.30;99.90;;;;;;5025746;28;19921;-86
2023/05/02 01:19:58;;;;;;;;;;;12.20;99.90;;;;;;5026093;28;20402;-85
2023/05/02 01:22:26;;;;;;;;;;;12.20;99.90;;;;;;5025725;28;19940;-86
2023/05/02 01:25:12;;;;;;;;;;;12.20;99.90;;;;;;5021330;28;19972;-85
2023/05/02 01:27:41;;;;;;;;;;;12.20;99.90;;;;;;5006790;28;19967;-86
2023/05/02 01:30:08;;;;;;;;;;;12.10;99.90;;;;;;5022129;28;20020;-85
2023/05/02 01:32:35;;;;;;;;;;;12.10;99.90;;;;;;5011386;28;20035;-85
2023/05/02 01:35:02;;;;;;;;;;;12.00;99.90;;;;;;5027805;28;19975;-86
2023/05/02 01:37:29;;;;;;;;;;;11.90;99.90;;;;;;5026786;28;20036;-86
2023/05/02 01:39:56;;;;;;;;;;;11.90;99.90;;;;;;5029070;28;19920;-84
2023/05/02 01:42:23;;;;;;;;;;;11.90;99.90;;;;;;5030235;28;19929;-85
2023/05/02 01:44:50;;;;;;;;;;;11.90;99.90;;;;;;5029752;28;20323;-85
2023/05/02 01:47:17;;;;;;;;;;;11.90;99.90;;;;;;5028776;28;19921;-85
2023/05/02 01:49:44;;;;;;;;;;;11.90;99.90;;;;;;5029752;28;19928;-86
2023/05/02 01:52:11;;;;;;;;;;;11.90;99.90;;;;;;5029835;28;20035;-86
2023/05/02 01:54:38;;;;;;;;;;;12.00;99.90;;;;;;5030927;28;19931;-84
2023/05/02 01:57:05;;;;;;;;;;;12.10;99.90;;;;;;5029315;28;19964;-86
2023/05/02 01:59:32;;;;;;;;;;;12.10;99.90;;;;;;5046482;28;19921;-85
2023/05/02 02:01:58;;;;;;;;;;;12.10;99.90;;;;;;5029486;28;20091;-86
2023/05/02 02:04:25;;;;;;;;;;;12.20;99.90;;;;;;5030175;28;20072;-86
2023/05/02 02:06:54;;;;;;;;;;;12.20;99.90;;;;;;5029485;28;19921;-85
2023/05/02 02:09:21;;;;;;;;;;;12.20;99.90;;;;;;5029997;28;19921;-85
2023/05/02 02:11:51;;;;;;;;;;;12.20;99.90;;;;;;5029631;28;19947;-85
2023/05/02 02:14:23;;;;;;;;;;;12.20;99.90;;;;;;5026548;28;19961;-86
2023/05/02 02:16:52;;;;;;;;;;;12.20;99.90;;;;;;5025579;28;19925;-86
2023/05/02 02:19:19;;;;;;;;;;;12.20;99.90;;;;;;5030358;28;20001;-86
2023/05/02 02:21:45;;;;;;;;;;;12.10;99.90;;;;;;5032524;28;19925;-86
2023/05/02 02:24:12;;;;;;;;;;;12.20;99.90;;;;;;5036214;28;19943;-86
2023/05/02 02:26:39;;;;;;;;;;;12.30;99.90;;;;;;5035267;28;19955;-84
2023/05/02 02:29:06;;;;;;;;;;;12.30;99.90;;;;;;5035658;28;19927;-85
2023/05/02 02:31:33;;;;;;;;;;;12.40;99.90;;;;;;5035330;28;20441;-85
2023/05/02 02:34:00;;;;;;;;;;;12.30;99.90;;;;;;5035616;28;20040;-86
2023/05/02 02:36:27;;;;;;;;;;;12.40;99.90;;;;;;5051179;28;20341;-85
2023/05/02 02:38:56;;;;;;;;;;;12.40;99.90;;;;;;5036763;28;19943;-86
2023/05/02 02:41:27;;;;;;;;;;;12.40;99.90;;;;;;5050914;28;19921;-85
2023/05/02 02:43:56;;;;;;;;;;;12.40;99.90;;;;;;5036775;28;20062;-85
2023/05/02 02:46:28;;;;;;;;;;;12.40;99.90;;;;;;5034493;28;20007;-85
2023/05/02 02:49:03;;;;;;;;;;;12.40;99.90;;;;;;5035515;28;19975;-85
2023/05/02 02:51:43;;;;;;;;;;;12.40;99.90;;;;;;5035183;28;19920;-86
2023/05/02 02:54:21;;;;;;;;;;;12.40;99.90;;;;;;5031940;28;20008;-85
2023/05/02 02:57:13;;;;;;;;;;;12.50;99.90;;;;;;5030307;28;20012;-86
2023/05/02 02:59:43;;;;;;;;;;;12.50;99.90;;;;;;5016797;28;19945;-86
2023/05/02 03:02:11;;;;;;;;;;;12.40;99.90;;;;;;5031961;28;19925;-86
2023/05/02 03:04:41;;;;;;;;;;;12.40;99.90;;;;;;5036247;28;19933;-86
2023/05/02 03:07:07;;;;;;;;;;;12.50;99.90;;;;;;5035042;28;20024;-85
2023/05/02 03:09:44;;;;;;;;;;;12.50;99.90;;;;;;5036115;28;19921;-86
2023/05/02 03:12:11;;;;;;;;;;;12.50;99.90;;;;;;5035257;28;19925;-86
2023/05/02 03:14:38;;;;;;;;;;;12.50;99.90;;;;;;5035136;28;19925;-84
2023/05/02 03:17:07;;;;;;;;;;;12.50;99.90;;;;;;5033946;28;20011;-85
2023/05/02 03:19:33;;;;;;;;;;;12.50;99.90;;;;;;5034872;28;19921;-85
2023/05/02 03:22:00;;;;;;;;;;;12.50;99.90;;;;;;5033979;28;19921;-86
2023/05/02 03:24:27;;;;;;;;;;;12.50;99.90;;;;;;5037398;28;19947;-84
2023/05/02 03:26:55;;;;;;;;;;;12.60;99.90;;;;;;5035915;28;19921;-87
2023/05/02 03:29:22;;;;;;;;;;;12.60;99.90;;;;;;5052593;28;19921;-86
2023/05/02 03:31:49;;;;;;;;;;;12.60;99.90;;;;;;5031196;28;19931;-86
2023/05/02 03:34:16;;;;;;;;;;;12.60;99.90;;;;;;5019871;28;20328;-86
2023/05/02 03:36:43;;;;;;;;;;;12.60;99.90;;;;;;5031499;28;20001;-86
2023/05/02 03:39:10;;;;;;;;;;;12.60;99.90;;;;;;5033315;28;19921;-86
2023/05/02 03:41:36;;;;;;;;;;;12.60;99.90;;;;;;5032439;28;19927;-85
2023/05/02 03:44:03;;;;;;;;;;;12.60;99.90;;;;;;5033217;28;20012;-86
2023/05/02 03:46:30;;;;;;;;;;;12.50;99.90;;;;;;5032818;28;19944;-85
2023/05/02 03:48:57;;;;;;;;;;;12.50;99.90;;;;;;5033242;28;20015;-86
2023/05/02 03:51:24;;;;;;;;;;;12.50;99.90;;;;;;5031015;28;20600;-85
2023/05/02 03:53:51;;;;;;;;;;;12.50;99.90;;;;;;5048020;28;19931;-85
2023/05/02 03:56:19;;;;;;;;;;;12.50;99.90;;;;;;5031976;28;19955;-86
2023/05/02 03:58:46;;;;;;;;;;;12.50;99.90;;;;;;5032126;28;20408;-86
2023/05/02 04:01:14;;;;;;;;;;;12.50;99.90;;;;;;5030395;28;20372;-86
2023/05/02 04:03:41;;;;;;;;;;;12.50;99.90;;;;;;5031999;28;20069;-87
2023/05/02 04:06:09;;;;;;;;;;;12.60;99.90;;;;;;5031093;28;20356;-86
2023/05/02 04:08:35;;;;;;;;;;;12.50;99.90;;;;;;5031455;28;19929;-87
2023/05/02 04:11:02;;;;;;;;;;;12.60;99.90;;;;;;5030627;28;19955;-86
2023/05/02 04:13:29;;;;;;;;;;;12.60;99.90;;;;;;5031143;28;19921;-86
2023/05/02 04:15:56;;;;;;;;;;;12.60;99.90;;;;;;5047608;28;19956;-87
2023/05/02 04:18:22;;;;;;;;;;;12.60;99.90;;;;;;5031186;28;19921;-86
2023/05/02 04:20:49;;;;;;;;;;;12.60;99.90;;;;;;5030840;28;19927;-86
2023/05/02 04:23:16;;;;;;;;;;;12.60;99.90;;;;;;5027666;28;19921;-86
2023/05/02 04:25:51;;;;;;;;;;;12.60;99.90;;;;;;5027316;28;19931;-87
2023/05/02 04:28:17;;;;;;;;;;;12.60;99.90;;;;;;5026809;28;19933;-86
2023/05/02 04:30:44;;;;;;;;;;;12.60;99.90;;;;;;5025729;28;20503;-82
2023/05/02 04:33:11;;;;;;;;;;;12.50;99.90;;;;;;5027454;28;19971;-82
2023/05/02 04:35:38;;;;;;;;;;;12.50;99.90;;;;;;5026690;28;19932;-83
2023/05/02 04:38:05;;;;;;;;;;;12.60;99.90;;;;;;5026181;28;19978;-83
2023/05/02 04:40:33;;;;;;;;;;;12.50;99.90;;;;;;5025489;28;19925;-84
2023/05/02 04:42:59;;;;;;;;;;;12.60;99.90;;;;;;5025627;28;20458;-83
2023/05/02 04:45:26;;;;;;;;;;;12.50;99.90;;;;;;5026251;28;19935;-83
2023/05/02 04:47:53;;;;;;;;;;;12.50;99.90;;;;;;5024246;28;19920;-83
2023/05/02 04:50:20;;;;;;;;;;;12.50;99.90;;;;;;5003860;28;19921;-83
2023/05/02 04:52:47;;;;;;;;;;;12.40;99.90;;;;;;5009059;28;20009;-83
2023/05/02 04:55:13;;;;;;;;;;;12.40;99.90;;;;;;5023653;28;19932;-83
2023/05/02 04:57:40;;;;;;;;;;;12.40;99.90;;;;;;5023639;28;20011;-83
2023/05/02 05:00:07;;;;;;;;;;;12.40;99.90;;;;;;5016748;28;19925;-82
2023/05/02 05:02:34;;;;;;;;;;;12.40;99.90;;;;;;5019200;28;19995;-82
2023/05/02 05:05:01;;;;;;;;;;;12.40;99.90;;;;;;5016284;28;19959;-83
2023/05/02 05:07:31;;;;;;;;;;;12.40;99.90;;;;;;5029266;28;19933;-83
2023/05/02 05:09:59;;;;;;;;;;;12.40;99.90;;;;;;5036232;28;19976;-82
2023/05/02 05:12:26;;;;;;;;;;;12.30;99.90;;;;;;5036657;28;19927;-82
2023/05/02 05:14:53;;;;;;;;;;;12.30;99.90;;;;;;5023090;28;19925;-87
2023/05/02 05:17:20;;;;;;;;;;;12.20;99.90;;;;;;5028861;28;19984;-87
2023/05/02 05:19:47;;;;;;;;;;;12.10;99.90;;;;;;5029203;28;20392;-87
2023/05/02 05:22:15;;;;;;;;;;;12.10;99.90;;;;;;5045569;28;20012;-87
2023/05/02 05:24:42;;;;;;;;;;;12.10;99.90;;;;;;5023546;28;19992;-86
2023/05/02 05:27:08;;;;;;;;;;;12.10;99.90;;;;;;5026041;28;19936;-85
2023/05/02 05:29:35;;;;;;;;;;;12.00;99.90;;;;;;5042455;28;20027;-86
2023/05/02 05:32:02;;;;;;;;;;;11.90;99.90;;;;;;5024702;28;19936;-85
2023/05/02 05:34:29;;;;;;;;;;;11.90;99.90;;;;;;5026922;28;19921;-87
2023/05/02 05:36:56;;;;;;;;;;;11.90;99.90;;;;;;5039337;28;19925;-86
2023/05/02 05:39:24;;;;;;;;;;;11.90;99.90;;;;;;5026295;28;20048;-87
2023/05/02 05:41:51;;;;;;;;;;;11.90;99.90;;;;;;5028060;28;20515;-87
2023/05/02 05:44:20;;;;;;;;;;;11.80;99.90;;;;;;5025250;28;20183;-88
2023/05/02 05:46:47;;;;;;;;;;;11.90;99.90;;;;;;5025554;28;19943;-89
2023/05/02 05:49:15;;;;;;;;;;;11.80;99.90;;;;;;5027147;28;19928;-89
2023/05/02 05:51:42;;;;;;;;;;;11.80;99.90;;;;;;5041907;28;20365;-90
2023/05/02 05:54:10;;;;;;;;;;;11.80;99.90;;;;;;5034948;28;19921;-88
2023/05/02 05:56:36;;;;;;;;;;;11.90;99.90;;;;;;5040959;28;19929;-92
2023/05/02 05:59:03;;;;;;;;;;;11.90;99.90;;;;;;5022760;28;19969;-80
2023/05/02 06:01:30;;;;;;;;;;;11.90;99.90;;;;;;5016942;28;20100;-80
2023/05/02 06:03:57;;;;;;;;;;;12.00;99.90;;;;;;5017284;28;19932;-80
2023/05/02 06:06:24;;;;;;;;;;;12.00;99.90;;;;;;5019111;28;20256;-80
2023/05/02 06:08:51;;;;;;;;;;;12.00;99.90;;;;;;5016428;28;19921;-80
2023/05/02 06:11:17;;;;;;;;;;;11.90;99.90;;;;;;5019552;28;19943;-79
2023/05/02 06:13:44;;;;;;;;;;;11.90;99.90;;;;;;5019190;28;20318;-80
2023/05/02 06:16:11;;;;;;;;;;;11.80;99.90;;;;;;4999008;28;20234;-78
2023/05/02 06:18:38;;;;;;;;;;;11.80;99.90;;;;;;5001576;28;19956;-80
2023/05/02 06:21:05;;;;;;;;;;;11.90;99.90;;;;;;5031913;28;19925;-80
2023/05/02 06:23:31;;;;;;;;;;;12.00;99.90;;;;;;5033938;28;19921;-80
2023/05/02 06:25:59;;;;;;;;;;;12.00;99.90;;;;;;5016252;28;19932;-80
2023/05/02 06:28:26;;;;;;;;;;;11.90;99.90;;;;;;4999662;28;19936;-80
2023/05/02 06:31:00;;;;;;;;;;;11.90;99.90;;;;;;5021210;28;20344;-80
2023/05/02 06:33:27;;;;;;;;;;;11.90;99.90;;;;;;5021574;28;20448;-80
2023/05/02 06:35:53;;;;;;;;;;;11.90;99.90;;;;;;5020907;28;19932;-80
2023/05/02 06:38:20;;;;;;;;;;;11.90;99.90;;;;;;5020485;28;19964;-80
2023/05/02 06:40:47;;;;;;;;;;;11.90;99.90;;;;;;5019548;28;19927;-80
2023/05/02 06:43:14;;;;;;;;;;;12.00;99.90;;;;;;5020375;28;19928;-80
2023/05/02 06:45:41;;;;;;;;;;;12.00;99.90;;;;;;5016523;28;20360;-79
2023/05/02 06:48:08;;;;;;;;;;;12.00;99.90;;;;;;5018626;28;19983;-80
2023/05/02 06:50:35;;;;;;;;;;;12.00;99.90;;;;;;5021702;28;20015;-80
2023/05/02 06:53:03;;;;;;;;;;;12.00;99.90;;;;;;5035692;28;20108;-80
2023/05/02 06:55:30;;;;;;;;;;;12.10;99.90;;;;;;5018049;28;20007;-79
2023/05/02 06:57:56;;;;;;;;;;;12.10;99.90;;;;;;5018470;28;19935;-79
2023/05/02 07:00:23;;;;;;;;;;;12.00;99.90;;;;;;5017012;28;19926;-79
2023/05/02 07:02:50;;;;;;;;;;;12.00;99.90;;;;;;5007425;28;20008;-79
2023/05/02 07:05:16;;;;;;;;;;;12.00;99.90;;;;;;5020193;28;20379;-79
2023/05/02 07:07:43;;;;;;;;;;;12.10;99.90;;;;;;5021363;28;19999;-80
2023/05/02 07:10:10;;;;;;;;;;;12.10;99.90;;;;;;5019446;28;19925;-79
2023/05/02 07:12:38;;;;;;;;;;;12.10;99.90;;;;;;5020976;28;19935;-79
2023/05/02 07:15:05;;;;;;;;;;;12.10;99.90;;;;;;5022031;28;19921;-79
2023/05/02 07:17:32;;;;;;;;;;;12.00;99.90;;;;;;5035764;28;19924;-79
2023/05/02 07:19:58;;;;;;;;;;;12.00;99.90;;;;;;5021002;28;20024;-79
2023/05/02 07:22:26;;;;;;;;;;;12.00;99.90;;;;;;5040299;28;20364;-79
2023/05/02 07:24:56;;;;;;;;;;;12.10;99.90;;;;;;5006670;28;19921;-79
2023/05/02 07:27:23;;;;;;;;;;;12.00;99.90;;;;;;5005149;28;20396;-79
2023/05/02 07:29:50;;;;;;;;;;;12.10;99.90;;;;;;5017405;28;20019;-79
2023/05/02 07:32:16;;;;;;;;;;;12.10;99.90;;;;;;5039289;28;19951;-78
2023/05/02 07:34:44;;;;;;;;;;;12.20;99.90;;;;;;5025407;28;19955;-81
2023/05/02 07:37:10;;;;;;;;;;;12.10;99.90;;;;;;5023497;28;20025;-81
2023/05/02 07:39:37;;;;;;;;;;;12.10;99.90;;;;;;5039822;28;19921;-81
2023/05/02 07:42:05;;;;;;;;;;;12.10;99.90;;;;;;5039516;28;19924;-81
2023/05/02 07:44:33;;;;;;;;;;;12.20;99.90;;;;;;5021535;28;19968;-78
2023/05/02 07:47:00;;;;;;;;;;;12.20;99.90;;;;;;5011698;28;20321;-79
2023/05/02 07:49:27;;;;;;;;;;;12.20;99.90;;;;;;5018909;28;19988;-79
2023/05/02 07:51:53;;;;;;;;;;;12.20;99.90;;;;;;5013295;28;19932;-80
2023/05/02 07:54:20;;;;;;;;;;;12.20;99.90;;;;;;5013652;28;19925;-80
2023/05/02 07:56:47;;;;;;;;;;;12.20;99.90;;;;;;5012481;28;19991;-80
2023/05/02 07:59:14;;;;;;;;;;;12.30;99.90;;;;;;5013317;28;20004;-80
2023/05/02 08:01:41;;;;;;;;;;;12.40;99.90;;;;;;5025325;28;20336;-81
2023/05/02 08:04:09;;;;;;;;;;;12.40;99.90;;;;;;5010918;28;20586;-80
2023/05/02 08:06:36;;;;;;;;;;;12.40;99.90;;;;;;5019496;28;19924;-87
2023/05/02 08:09:03;;;;;;;;;;;12.40;99.90;;;;;;5007925;28;20181;-87
2023/05/02 08:11:30;;;;;;;;;;;12.40;99.90;;;;;;5018690;28;19928;-89
2023/05/02 08:13:57;;;;;;;;;;;12.40;99.90;;;;;;5018664;28;19925;-88
2023/05/02 08:16:24;;;;;;;;;;;12.40;99.90;;;;;;5023563;28;20153;-86
2023/05/02 08:18:50;;;;;;;;;;;12.40;99.90;;;;;;5019875;28;19940;-88
2023/05/02 08:21:18;;;;;;;;;;;12.40;99.90;;;;;;5038407;28;19986;-93
2023/05/02 08:23:45;;;;;;;;;;;12.40;99.90;;;;;;5026288;28;20024;-87
2023/05/02 08:26:12;;;;;;;;;;;12.40;99.90;;;;;;5027664;28;19921;-89
2023/05/02 08:28:38;;;;;;;;;;;12.50;99.90;;;;;;5022754;28;20302;-89
2023/05/02 08:31:05;;;;;;;;;;;12.50;99.90;;;;;;5023808;28;20459;-88
2023/05/02 08:33:32;;;;;;;;;;;12.60;99.90;;;;;;5023732;28;19927;-88
2023/05/02 08:35:59;;;;;;;;;;;12.70;99.90;;;;;;5041947;28;19921;-89
2023/05/02 08:38:26;;;;;;;;;;;12.70;99.90;;;;;;5024962;28;19925;-89
2023/05/02 08:40:52;;;;;;;;;;;12.80;99.90;;;;;;5044838;28;20023;-88
2023/05/02 08:43:20;;;;;;;;;;;12.90;99.90;;;;;;5023165;28;19987;-88
2023/05/02 08:45:47;;;;;;;;;;;12.90;99.90;;;;;;5006061;28;19927;-88
2023/05/02 08:48:15;;;;;;;;;;;12.90;99.90;;;;;;5005158;28;19925;-88
2023/05/02 08:50:44;;;;;;;;;;;12.90;99.90;;;;;;5021063;28;19976;-88
2023/05/02 08:53:12;;;;;;;;;;;12.90;99.90;;;;;;5022584;28;19925;-88
2023/05/02 08:55:39;;;;;;;;;;;12.90;99.90;;;;;;5021718;28;19927;-88
2023/05/02 08:58:07;;;;;;;;;;;12.90;99.90;;;;;;5022270;28;19948;-88
2023/05/02 09:00:36;;;;;;;;;;;13.00;99.90;;;;;;5023469;28;20319;-88
2023/05/02 09:03:03;;;;;;;;;;;13.00;99.90;;;;;;5025258;28;19925;-89
2023/05/02 09:05:31;;;;;;;;;;;13.10;99.90;;;;;;5043082;28;19967;-88
2023/05/02 09:07:57;;;;;;;;;;;13.20;99.90;;;;;;5025735;28;19944;-88
2023/05/02 09:10:25;;;;;;;;;;;13.40;99.90;;;;;;5042224;28;19924;-88
2023/05/02 09:12:51;;;;;;;;;;;13.50;99.90;;;;;;5025564;28;20437;-89
2023/05/02 09:15:18;;;;;;;;;;;13.60;99.90;;;;;;5025296;28;19920;-89
2023/05/02 09:17:47;;;;;;;;;;;13.50;99.90;;;;;;5025461;28;19925;-89
2023/05/02 09:20:14;;;;;;;;;;;13.60;99.90;;;;;;5025501;28;19932;-89
2023/05/02 09:22:48;;;;;;;;;;;13.50;99.90;;;;;;5023904;28;19925;-89
2023/05/02 09:25:15;;;;;;;;;;;13.40;99.90;;;;;;5002586;28;19987;-88
2023/05/02 09:27:50;;;;;;;;;;;13.40;99.90;;;;;;5002228;28;20779;-88
2023/05/02 09:30:17;;;;;;;;;;;13.40;99.90;;;;;;5005622;28;20028;-88
2023/05/02 09:32:44;;;;;;;;;;;13.50;99.90;;;;;;5010767;28;19941;-88
2023/05/02 09:35:12;;;;;;;;;;;13.50;99.90;;;;;;5024998;28;20240;-88
2023/05/02 09:37:39;;;;;;;;;;;13.70;99.90;;;;;;5026556;28;20288;-88
2023/05/02 09:40:08;;;;;;;;;;;13.80;99.90;;;;;;5025101;28;20245;-89
2023/05/02 09:42:35;;;;;;;;;;;13.90;99.90;;;;;;5022831;28;19936;-89
2023/05/02 09:45:01;;;;;;;;;;;14.00;99.90;;;;;;5004718;28;19921;-87
2023/05/02 09:47:28;;;;;;;;;;;14.10;99.90;;;;;;5005079;28;20313;-89
2023/05/02 09:49:55;;;;;;;;;;;14.00;99.90;;;;;;5016733;28;19927;-88
2023/05/02 09:52:22;;;;;;;;;;;14.10;99.90;;;;;;5041239;28;19925;-88
2023/05/02 09:54:50;;;;;;;;;;;14.20;99.90;;;;;;5025058;28;20241;-88
2023/05/02 09:57:17;;;;;;;;;;;14.20;99.90;;;;;;5025591;28;20016;-88
2023/05/02 09:59:57;;;;;;;;;;;14.30;99.90;;;;;;5024474;28;19928;-88
2023/05/02 10:02:24;;;;;;;;;;;14.30;99.90;;;;;;5024899;28;19921;-88
2023/05/02 10:04:52;;;;;;;;;;;14.30;99.90;;;;;;5026960;28;19921;-88
2023/05/02 10:07:19;;;;;;;;;;;14.30;99.90;;;;;;5042626;28;19969;-89
2023/05/02 10:09:46;;;;;;;;;;;14.50;99.90;;;;;;5031882;28;20020;-89
2023/05/02 10:12:13;;;;;;;;;;;14.70;99.90;;;;;;5006193;28;19940;-89
2023/05/02 10:14:41;;;;;;;;;;;14.80;99.90;;;;;;5021382;28;19997;-89
2023/05/02 10:17:12;;;;;;;;;;;15.00;99.90;;;;;;5020317;28;19985;-89
2023/05/02 10:19:39;;;;;;;;;;;15.10;99.90;;;;;;5020735;28;19928;-88
2023/05/02 10:22:06;;;;;;;;;;;15.40;99.90;;;;;;5005019;28;19973;-88
2023/05/02 10:24:33;;;;;;;;;;;15.70;99.90;;;;;;5018064;28;20318;-89
2023/05/02 10:27:01;;;;;;;;;;;15.90;99.90;;;;;;5002257;28;20210;-89
2023/05/02 10:29:28;;;;;;;;;;;15.90;99.90;;;;;;5009589;28;19987;-88
2023/05/02 10:31:55;;;;;;;;;;;15.90;99.90;;;;;;5024152;28;20043;-90
2023/05/02 10:34:22;;;;;;;;;;;16.00;99.90;;;;;;5025436;28;19921;-89
2023/05/02 10:36:48;;;;;;;;;;;16.10;99.90;;;;;;5024970;28;20032;-89
2023/05/02 10:39:15;;;;;;;;;;;16.30;99.90;;;;;;5024654;28;19921;-89
2023/05/02 10:41:42;;;;;;;;;;;16.30;99.90;;;;;;5029401;28;19925;-90
2023/05/02 10:44:09;;;;;;;;;;;16.30;99.90;;;;;;5028499;28;19939;-90
2023/05/02 10:46:36;;;;;;;;;;;16.40;99.90;;;;;;5026861;28;19921;-90
2023/05/02 10:49:07;;;;;;;;;;;16.70;99.90;;;;;;5027183;28;19947;-89
2023/05/02 10:51:34;;;;;;;;;;;17.00;99.90;;;;;;5029838;28;20365;-90
2023/05/02 10:54:17;;;;;;;;;;;17.10;99.90;;;;;;5030771;28;19927;-89
2023/05/02 10:57:02;;;;;;;;;;;17.00;99.90;;;;;;5029261;28;19920;-89
2023/05/02 10:59:29;;;;;;;;;;;16.90;99.90;;;;;;5030143;28;20019;-89
2023/05/02 11:01:56;;;;;;;;;;;16.90;99.90;;;;;;5029100;28;19952;-89
2023/05/02 11:04:23;;;;;;;;;;;17.00;99.90;;;;;;5046457;28;19987;-89
2023/05/02 11:06:56;;;;;;;;;;;17.20;99.90;;;;;;5029750;28;19921;-89
2023/05/02 11:09:23;;;;;;;;;;;17.30;99.90;;;;;;5031193;28;19983;-89
2023/05/02 11:11:51;;;;;;;;;;;17.30;99.90;;;;;;5029655;28;19992;-90
2023/05/02 11:14:24;;;;;;;;;;;17.30;99.90;;;;;;5028450;28;19925;-89
2023/05/02 11:17:00;;;;;;;;;;;17.30;99.90;;;;;;5027962;28;20032;-89
2023/05/02 11:19:27;;;;;;;;;;;17.40;99.90;;;;;;5030036;28;19932;-89
2023/05/02 11:22:15;;;;;;;;;;;17.40;99.90;;;;;;5028605;28;19935;-89
2023/05/02 11:24:43;;;;;;;;;;;17.20;99.90;;;;;;5022195;28;20031;-89
2023/05/02 11:27:32;;;;;;;;;;;17.00;99.90;;;;;;5024005;28;19929;-89
2023/05/02 11:29:59;;;;;;;;;;;16.80;99.90;;;;;;5025320;28;20280;-89
2023/05/02 11:32:44;;;;;;;;;;;16.70;99.90;;;;;;5026991;28;20020;-89
2023/05/02 11:35:15;;;;;;;;;;;16.60;99.90;;;;;;5026858;28;19932;-89
2023/05/02 11:37:41;;;;;;;;;;;16.60;99.90;;;;;;5024853;28;20311;-89
2023/05/02 11:40:09;;;;;;;;;;;16.40;99.90;;;;;;5026547;28;20003;-89
2023/05/02 11:42:36;;;;;;;;;;;16.40;99.90;;;;;;5027880;28;19952;-89
2023/05/02 11:45:03;;;;;;;;;;;16.40;99.90;;;;;;5027574;28;20012;-89
2023/05/02 11:47:31;;;;;;;;;;;16.50;99.90;;;;;;5027038;28;20020;-89
2023/05/02 11:49:59;;;;;;;;;;;16.60;99.90;;;;;;5043864;28;19921;-89
2023/05/02 11:52:26;;;;;;;;;;;16.60;99.90;;;;;;5026296;28;19927;-89
2023/05/02 11:54:54;;;;;;;;;;;16.70;99.90;;;;;;5025102;28;19988;-89
2023/05/02 11:57:21;;;;;;;;;;;16.70;99.90;;;;;;5024866;28;19936;-89
2023/05/02 11:59:51;;;;;;;;;;;17.00;99.90;;;;;;5028254;28;19932;-89
2023/05/02 12:02:18;;;;;;;;;;;17.50;99.90;;;;;;5025215;28;19921;-89
2023/05/02 12:04:45;;;;;;;;;;;17.80;99.90;;;;;;5025015;28;19946;-88
2023/05/02 12:07:12;;;;;;;;;;;17.80;99.90;;;;;;5027226;28;19924;-90
2023/05/02 12:09:49;;;;;;;;;;;18.10;99.90;;;;;;5023089;28;19975;-89
2023/05/02 12:12:41;;;;;;;;;;;18.70;99.90;;;;;;5008573;28;19929;-89
2023/05/02 12:15:08;;;;;;;;;;;19.00;99.50;;;;;;5008298;28;19922;-90
2023/05/02 12:17:36;;;;;;;;;;;18.90;98.90;;;;;;5006563;28;19947;-89
2023/05/02 12:20:03;;;;;;;;;;;18.90;99.00;;;;;;5015060;28;20135;-89
2023/05/02 12:22:30;;;;;;;;;;;18.70;99.20;;;;;;5022093;28;20037;-89
2023/05/02 12:24:57;;;;;;;;;;;18.70;99.20;;;;;;5024907;28;19921;-89
2023/05/02 12:27:24;;;;;;;;;;;18.70;98.90;;;;;;5021393;28;19929;-90
2023/05/02 12:29:51;;;;;;;;;;;18.70;98.50;;;;;;5021795;28;20006;-89
2023/05/02 12:32:28;;;;;;;;;;;18.70;99.30;;;;;;5035931;28;20167;-89
2023/05/02 12:34:55;;;;;;;;;;;18.40;98.60;;;;;;5023692;28;20011;-89
2023/05/02 12:37:23;;;;;;;;;;;18.20;98.80;;;;;;5025990;28;20020;-90
2023/05/02 12:39:51;;;;;;;;;;;18.30;98.30;;;;;;5023634;28;19920;-89
2023/05/02 12:42:18;;;;;;;;;;;18.20;99.10;;;;;;5024548;28;19947;-90
2023/05/02 12:44:46;;;;;;;;;;;18.30;99.00;;;;;;5025326;28;19972;-89
2023/05/02 12:47:13;;;;;;;;;;;18.20;98.60;;;;;;5021913;28;20011;-90
2023/05/02 12:49:50;;;;;;;;;;;18.20;98.80;;;;;;5019366;28;20291;-78
2023/05/02 12:52:17;;;;;;;;;;;18.30;98.80;;;;;;5016830;28;20409;-80
2023/05/02 12:54:45;;;;;;;;;;;18.40;98.80;;;;;;5014390;28;20063;-77
2023/05/02 12:57:24;;;;;;;;;;;18.50;98.80;;;;;;5013519;28;19964;-78
2023/05/02 12:59:52;;;;;;;;;;;18.20;98.40;;;;;;5016172;28;19968;-78
2023/05/02 13:02:19;;;;;;;;;;;18.30;99.10;;;;;;5013539;28;20409;-78
2023/05/02 13:04:46;;;;;;;;;;;18.10;99.00;;;;;;5015420;28;19929;-78
2023/05/02 13:07:13;;;;;;;;;;;18.10;99.40;;;;;;5011173;28;20044;-78
2023/05/02 13:09:39;;;;;;;;;;;18.20;98.80;;;;;;5022120;28;19952;-78
2023/05/02 13:12:06;;;;;;;;;;;18.40;99.30;;;;;;5026162;28;20368;-79
2023/05/02 13:14:33;;;;;;;;;;;18.60;98.80;;;;;;5034193;28;19932;-76
2023/05/02 13:17:00;;;;;;;;;;;18.40;98.60;;;;;;5015034;28;19933;-76
2023/05/02 13:19:29;;;;;;;;;;;18.20;99.00;;;;;;5033630;28;19944;-77
2023/05/02 13:21:56;;;;;;;;;;;18.10;98.80;;;;;;5035303;28;19921;-76
2023/05/02 13:24:23;;;;;;;;;;;17.90;99.10;;;;;;5019949;28;20569;-76
2023/05/02 13:26:50;;;;;;;;;;;17.80;98.80;;;;;;5015454;28;19939;-76
2023/05/02 13:29:17;;;;;;;;;;;17.90;99.30;;;;;;5022474;28;20007;-76
2023/05/02 13:31:43;;;;;;;;;;;17.70;99.00;;;;;;5033070;28;19971;-76
2023/05/02 13:34:10;;;;;;;;;;;17.70;99.20;;;;;;5012723;28;19973;-76
2023/05/02 13:36:44;;;;;;;;;;;17.70;99.30;;;;;;5020341;28;20419;-80
2023/05/02 13:39:12;;;;;;;;;;;17.80;99.10;;;;;;5020708;28;20356;-79
2023/05/02 13:41:39;;;;;;;;;;;17.80;99.10;;;;;;5034418;28;20436;-77
2023/05/02 13:44:06;;;;;;;;;;;18.00;99.00;;;;;;5020255;28;19940;-80
2023/05/02 13:46:35;;;;;;;;;;;18.10;99.10;;;;;;5015995;28;19926;-79
2023/05/02 13:49:02;;;;;;;;;;;18.10;98.90;;;;;;5022476;28;19936;-79
2023/05/02 13:51:32;;;;;;;;;;;18.40;98.50;;;;;;5030496;28;19984;-80
2023/05/02 13:53:59;;;;;;;;;;;18.90;98.00;;;;;;5018678;28;19928;-80
2023/05/02 13:56:26;;;;;;;;;;;18.80;97.60;;;;;;5019383;28;19937;-80
2023/05/02 13:58:52;;;;;;;;;;;19.10;97.60;;;;;;5019625;28;19928;-80
2023/05/02 14:01:19;;;;;;;;;;;19.00;97.10;;;;;;5021920;28;20031;-80
2023/05/02 14:03:46;;;;;;;;;;;18.70;97.50;;;;;;5020775;28;19939;-80
2023/05/02 14:06:13;;;;;;;;;;;18.50;97.60;;;;;;5022018;28;20353;-80
2023/05/02 14:08:40;;;;;;;;;;;18.30;97.90;;;;;;5036486;28;19924;-80
2023/05/02 14:11:06;;;;;;;;;;;18.30;97.80;;;;;;5013300;28;20022;-79
2023/05/02 14:13:33;;;;;;;;;;;18.20;97.80;;;;;;5016372;28;19925;-79
2023/05/02 14:16:00;;;;;;;;;;;18.20;97.50;;;;;;5021902;28;19931;-80
2023/05/02 14:18:26;;;;;;;;;;;18.40;97.70;;;;;;5010413;28;19921;-79
2023/05/02 14:20:55;;;;;;;;;;;18.50;97.40;;;;;;5017666;28;20110;-79